Time;durP1;ratioP1;P1;durP2;ratioP2;P2;SDS_P1;SDS_P2;PMS_P1;PMS_P2;Temp;Humidity;BMP_temperature;BMP_pressure;BME280_temperature;BME280_humidity;BME280_pressure;Samples;Min_cycle;Max_cycle;Signal;HPM_P1;HPM_P2
2021/10/15 00:02:08;;;;;;;7.90;7.27;;;9.10;60.00;;;;;;5035370;28;20259;-85
2021/10/15 00:04:34;;;;;;;7.80;7.10;;;9.10;59.20;;;;;;5035146;28;20199;-85
2021/10/15 00:07:00;;;;;;;7.20;6.60;;;9.00;59.60;;;;;;5035021;28;20172;-86
2021/10/15 00:09:25;;;;;;;9.37;7.17;;;9.00;59.70;;;;;;5035257;28;20258;-86
2021/10/15 00:11:51;;;;;;;7.30;6.60;;;9.00;59.70;;;;;;5035118;28;20218;-86
2021/10/15 00:14:17;;;;;;;8.00;7.30;;;8.90;59.50;;;;;;5035414;28;20183;-87
2021/10/15 00:16:42;;;;;;;10.83;7.57;;;9.00;59.60;;;;;;5035416;28;20180;-85
2021/10/15 00:19:08;;;;;;;7.83;7.03;;;8.90;59.80;;;;;;5035553;28;20418;-85
2021/10/15 00:21:34;;;;;;;8.00;7.30;;;8.90;60.30;;;;;;5034532;28;20458;-86
2021/10/15 00:23:59;;;;;;;6.80;6.10;;;8.90;60.40;;;;;;5035277;28;20180;-86
2021/10/15 00:26:25;;;;;;;7.07;6.40;;;8.80;59.60;;;;;;5035145;28;20260;-86
2021/10/15 00:28:51;;;;;;;8.30;7.50;;;8.70;60.90;;;;;;5035863;28;20176;-85
2021/10/15 00:31:17;;;;;;;8.40;7.80;;;8.80;60.20;;;;;;5035663;28;20176;-81
2021/10/15 00:33:42;;;;;;;8.10;7.30;;;8.80;60.20;;;;;;5035407;28;20261;-85
2021/10/15 00:36:08;;;;;;;7.53;7.03;;;8.80;60.00;;;;;;5035441;28;20444;-85
2021/10/15 00:38:36;;;;;;;7.27;6.67;;;8.80;60.20;;;;;;5034870;28;20183;-85
2021/10/15 00:41:02;;;;;;;7.03;6.33;;;8.80;60.00;;;;;;5035007;28;20217;-86
2021/10/15 00:43:27;;;;;;;8.67;7.87;;;8.80;59.20;;;;;;5052808;28;20509;-84
2021/10/15 00:45:53;;;;;;;6.90;6.33;;;8.80;58.80;;;;;;5034824;28;20225;-85
2021/10/15 00:48:19;;;;;;;7.43;6.93;;;8.80;58.80;;;;;;5034942;28;20179;-84
2021/10/15 00:50:46;;;;;;;8.50;7.60;;;8.70;58.50;;;;;;5035042;28;20183;-85
2021/10/15 00:53:12;;;;;;;7.27;6.67;;;8.70;58.80;;;;;;5034677;28;20183;-85
2021/10/15 00:55:38;;;;;;;6.73;6.23;;;8.70;59.10;;;;;;5034668;28;20441;-86
2021/10/15 00:58:04;;;;;;;7.10;6.40;;;8.60;59.40;;;;;;5034542;28;20423;-84
2021/10/15 01:00:30;;;;;;;8.13;7.43;;;8.60;59.80;;;;;;5034231;28;20993;-81
2021/10/15 01:02:57;;;;;;;7.83;6.70;;;8.50;60.40;;;;;;5034132;28;20177;-81
2021/10/15 01:05:23;;;;;;;7.70;7.00;;;8.50;60.70;;;;;;5034100;28;20541;-81
2021/10/15 01:07:50;;;;;;;7.50;6.87;;;8.40;60.50;;;;;;5034027;28;20903;-81
2021/10/15 01:10:19;;;;;;;7.53;6.77;;;8.40;60.50;;;;;;5034277;28;20426;-81
2021/10/15 01:12:45;;;;;;;7.17;6.60;;;8.30;61.20;;;;;;5033999;28;20892;-81
2021/10/15 01:15:11;;;;;;;7.50;6.83;;;8.40;60.60;;;;;;5034594;28;20423;-81
2021/10/15 01:17:37;;;;;;;6.90;6.40;;;8.30;60.80;;;;;;5034157;28;20415;-81
2021/10/15 01:20:04;;;;;;;7.40;6.70;;;8.30;60.50;;;;;;5034543;28;20974;-81
2021/10/15 01:22:30;;;;;;;7.60;6.97;;;8.30;60.50;;;;;;5034333;28;20850;-80
2021/10/15 01:24:57;;;;;;;7.50;6.80;;;8.30;61.00;;;;;;5034560;28;20422;-81
2021/10/15 01:27:24;;;;;;;7.27;6.57;;;8.20;61.20;;;;;;5034376;28;20411;-85
2021/10/15 01:29:50;;;;;;;8.03;6.70;;;8.30;60.40;;;;;;5034432;28;20422;-86
2021/10/15 01:32:17;;;;;;;7.33;6.50;;;8.10;61.00;;;;;;5034519;28;20421;-85
2021/10/15 01:34:45;;;;;;;7.20;6.60;;;8.10;60.30;;;;;;5034710;28;20418;-85
2021/10/15 01:37:11;;;;;;;6.80;6.13;;;8.10;60.80;;;;;;5055371;28;20425;-85
2021/10/15 01:39:37;;;;;;;7.00;6.40;;;8.10;60.40;;;;;;5038364;28;20465;-85
2021/10/15 01:42:03;;;;;;;7.37;6.77;;;8.10;61.60;;;;;;5038200;28;20423;-85
2021/10/15 01:44:28;;;;;;;8.03;7.43;;;8.00;63.10;;;;;;5038148;28;20191;-86
2021/10/15 01:46:54;;;;;;;8.67;7.80;;;8.00;63.30;;;;;;5038258;28;20418;-81
2021/10/15 01:49:20;;;;;;;8.50;7.80;;;8.00;64.30;;;;;;5037875;28;20183;-82
2021/10/15 01:51:45;;;;;;;9.00;8.20;;;7.90;64.70;;;;;;5037742;28;20701;-81
2021/10/15 01:54:11;;;;;;;10.17;8.43;;;7.90;64.90;;;;;;5037715;28;20712;-81
2021/10/15 01:56:37;;;;;;;9.50;8.60;;;7.80;65.50;;;;;;5037524;28;20195;-81
2021/10/15 01:59:04;;;;;;;8.20;7.60;;;7.80;66.60;;;;;;5037679;28;20182;-81
2021/10/15 02:01:29;;;;;;;8.97;8.17;;;7.70;66.20;;;;;;5037149;28;20468;-81
2021/10/15 02:03:55;;;;;;;9.13;8.37;;;7.60;66.20;;;;;;5037383;28;20419;-81
2021/10/15 02:06:21;;;;;;;9.50;8.70;;;7.70;67.10;;;;;;5037203;28;20275;-81
2021/10/15 02:08:46;;;;;;;7.87;7.23;;;7.60;67.60;;;;;;5037346;28;20208;-80
2021/10/15 02:11:12;;;;;;;9.93;8.30;;;7.60;67.70;;;;;;5037313;28;20238;-81
2021/10/15 02:13:38;;;;;;;9.90;9.00;;;7.80;67.30;;;;;;5037299;28;20219;-81
2021/10/15 02:16:03;;;;;;;9.53;8.27;;;7.70;66.50;;;;;;5037126;28;20184;-82
2021/10/15 02:18:29;;;;;;;9.80;8.90;;;7.70;67.70;;;;;;5036779;28;20214;-81
2021/10/15 02:20:55;;;;;;;9.80;9.00;;;7.60;67.10;;;;;;5036749;28;20214;-81
2021/10/15 02:23:21;;;;;;;8.83;8.00;;;7.60;67.80;;;;;;5036563;28;20186;-80
2021/10/15 02:25:48;;;;;;;8.87;8.10;;;7.60;67.40;;;;;;5036606;28;20517;-81
2021/10/15 02:28:13;;;;;;;10.07;9.20;;;7.60;67.40;;;;;;5036304;28;20230;-80
2021/10/15 02:30:39;;;;;;;10.83;9.90;;;7.60;67.10;;;;;;5036460;28;20467;-81
2021/10/15 02:33:04;;;;;;;11.50;10.50;;;7.60;67.50;;;;;;5036201;28;20226;-81
2021/10/15 02:35:31;;;;;;;12.67;11.50;;;7.50;67.50;;;;;;5020149;28;20231;-81
2021/10/15 02:38:00;;;;;;;13.10;11.70;;;7.50;67.90;;;;;;5036442;28;20607;-85
2021/10/15 02:40:26;;;;;;;13.87;12.33;;;7.50;67.60;;;;;;5036305;28;20697;-85
2021/10/15 02:42:52;;;;;;;12.97;11.80;;;7.40;67.90;;;;;;5053218;28;20925;-85
2021/10/15 02:45:17;;;;;;;12.83;11.63;;;7.30;68.50;;;;;;5036603;28;20422;-84
2021/10/15 02:47:43;;;;;;;18.90;11.83;;;7.30;68.70;;;;;;5035798;28;20180;-87
2021/10/15 02:50:09;;;;;;;13.17;11.97;;;7.40;67.70;;;;;;5036395;28;20234;-85
2021/10/15 02:52:35;;;;;;;13.47;12.07;;;7.40;68.30;;;;;;5036501;28;20182;-85
2021/10/15 02:55:01;;;;;;;12.67;11.23;;;7.40;67.40;;;;;;5036396;28;20427;-85
2021/10/15 02:57:27;;;;;;;12.90;11.70;;;7.20;68.10;;;;;;5054093;28;20180;-85
2021/10/15 02:59:52;;;;;;;12.50;11.17;;;7.30;68.10;;;;;;5036200;28;20469;-86
2021/10/15 03:02:18;;;;;;;11.43;10.50;;;7.30;67.80;;;;;;5036354;28;20176;-85
2021/10/15 03:04:43;;;;;;;11.77;10.67;;;7.30;68.00;;;;;;5036244;28;20179;-85
2021/10/15 03:07:09;;;;;;;12.13;11.03;;;7.30;68.40;;;;;;5052552;28;20184;-85
2021/10/15 03:09:35;;;;;;;12.10;11.00;;;7.30;68.80;;;;;;5036204;28;20655;-81
2021/10/15 03:12:01;;;;;;;12.03;11.00;;;7.30;68.40;;;;;;5035641;28;20449;-81
2021/10/15 03:14:26;;;;;;;13.50;12.10;;;7.30;68.10;;;;;;5035958;28;20594;-81
2021/10/15 03:16:52;;;;;;;12.10;10.90;;;7.30;68.20;;;;;;5035416;28;20582;-81
2021/10/15 03:19:18;;;;;;;11.60;10.60;;;7.30;68.60;;;;;;5035533;28;20329;-81
2021/10/15 03:21:44;;;;;;;12.40;11.20;;;7.30;67.60;;;;;;5053378;28;20182;-80
2021/10/15 03:24:10;;;;;;;11.33;10.33;;;7.30;67.60;;;;;;5035506;28;20179;-81
2021/10/15 03:26:36;;;;;;;12.20;11.00;;;7.20;67.10;;;;;;5035420;28;20505;-80
2021/10/15 03:29:01;;;;;;;12.20;11.10;;;7.20;68.30;;;;;;5036014;28;20230;-85
2021/10/15 03:31:27;;;;;;;11.83;10.73;;;7.20;68.60;;;;;;5035858;28;20179;-85
2021/10/15 03:33:53;;;;;;;12.43;11.23;;;7.20;68.30;;;;;;5035832;28;20179;-85
2021/10/15 03:36:18;;;;;;;11.77;10.70;;;7.20;68.20;;;;;;5035627;28;20594;-85
2021/10/15 03:38:44;;;;;;;12.17;11.00;;;7.20;67.40;;;;;;5035791;28;20187;-86
2021/10/15 03:41:09;;;;;;;11.17;10.17;;;7.20;67.40;;;;;;5035510;28;20583;-84
2021/10/15 03:43:35;;;;;;;10.90;10.00;;;7.20;67.90;;;;;;5035663;28;20261;-85
2021/10/15 03:46:01;;;;;;;10.67;9.77;;;7.10;68.10;;;;;;5035623;28;20239;-86
2021/10/15 03:48:26;;;;;;;11.97;10.97;;;7.10;67.60;;;;;;5035642;28;20198;-86
2021/10/15 03:50:52;;;;;;;11.87;10.87;;;7.20;67.90;;;;;;5053595;28;20263;-86
2021/10/15 03:53:17;;;;;;;11.50;10.50;;;7.20;67.20;;;;;;5035584;28;20299;-85
2021/10/15 03:55:43;;;;;;;10.27;9.37;;;7.20;67.30;;;;;;5035710;28;20180;-85
2021/10/15 03:58:09;;;;;;;11.07;9.97;;;7.20;67.60;;;;;;5035372;28;20187;-85
2021/10/15 04:00:34;;;;;;;9.40;8.70;;;7.10;67.50;;;;;;5052298;28;20204;-85
2021/10/15 04:03:00;;;;;;;10.87;9.53;;;7.20;67.20;;;;;;5035168;28;20218;-86
2021/10/15 04:05:26;;;;;;;11.40;10.40;;;7.20;67.40;;;;;;5035403;28;20265;-86
2021/10/15 04:07:51;;;;;;;10.83;9.93;;;7.20;67.40;;;;;;5035223;28;20175;-86
2021/10/15 04:10:17;;;;;;;9.50;8.60;;;7.10;66.50;;;;;;5035574;28;20267;-86
2021/10/15 04:12:43;;;;;;;8.83;8.13;;;7.20;66.90;;;;;;5035260;28;20199;-86
2021/10/15 04:15:09;;;;;;;8.20;7.50;;;7.10;66.40;;;;;;5035743;28;20238;-86
2021/10/15 04:17:35;;;;;;;10.07;7.87;;;7.10;66.40;;;;;;5035176;28;20659;-86
2021/10/15 04:20:01;;;;;;;8.83;8.03;;;7.20;66.20;;;;;;5035432;28;20453;-85
2021/10/15 04:22:26;;;;;;;7.87;7.27;;;7.20;65.90;;;;;;5035436;28;20186;-84
2021/10/15 04:24:53;;;;;;;9.10;8.20;;;7.20;65.10;;;;;;5035440;28;20179;-86
2021/10/15 04:27:18;;;;;;;8.40;7.60;;;7.30;64.70;;;;;;5034816;28;20177;-85
2021/10/15 04:29:44;;;;;;;8.53;7.83;;;7.30;65.00;;;;;;5034689;28;20858;-85
2021/10/15 04:32:10;;;;;;;8.90;8.03;;;7.20;64.10;;;;;;5034911;28;20632;-86
2021/10/15 04:34:36;;;;;;;7.70;7.00;;;7.30;64.40;;;;;;5034899;28;20261;-85
2021/10/15 04:37:01;;;;;;;9.67;8.00;;;7.40;65.50;;;;;;5034442;28;20624;-85
2021/10/15 04:39:27;;;;;;;7.80;7.20;;;7.40;63.90;;;;;;5034625;28;20222;-85
2021/10/15 04:41:53;;;;;;;10.33;9.40;;;7.40;63.30;;;;;;5034752;28;20189;-85
2021/10/15 04:44:18;;;;;;;9.10;7.93;;;7.50;63.00;;;;;;5034407;28;20628;-85
2021/10/15 04:46:44;;;;;;;7.30;6.80;;;7.50;62.80;;;;;;5034567;28;20218;-85
2021/10/15 04:49:10;;;;;;;8.30;7.60;;;7.40;62.80;;;;;;5034347;28;20179;-85
2021/10/15 04:51:35;;;;;;;9.00;8.20;;;7.40;63.30;;;;;;5034282;28;20275;-85
2021/10/15 04:54:01;;;;;;;8.57;7.83;;;7.40;63.00;;;;;;5034505;28;20185;-85
2021/10/15 04:56:27;;;;;;;8.57;7.87;;;7.50;63.60;;;;;;5034535;28;20690;-85
2021/10/15 04:58:52;;;;;;;7.53;6.83;;;7.50;62.80;;;;;;5034530;28;20180;-85
2021/10/15 05:01:18;;;;;;;7.27;6.57;;;7.60;62.30;;;;;;5034489;28;20294;-85
2021/10/15 05:03:44;;;;;;;7.70;6.90;;;7.60;59.90;;;;;;5034547;28;20203;-85
2021/10/15 05:06:10;;;;;;;8.20;7.30;;;7.70;58.60;;;;;;5034420;28;20216;-85
2021/10/15 05:11:45;;;;;;;9.00;7.00;;;7.80;59.10;;;;;;5020226;28;20417;-85
2021/10/15 05:14:11;;;;;;;8.60;7.70;;;7.80;58.50;;;;;;5056563;28;20901;-85
2021/10/15 05:16:37;;;;;;;8.40;7.70;;;7.90;59.50;;;;;;5038412;28;20418;-85
2021/10/15 05:19:03;;;;;;;9.83;8.00;;;7.80;60.00;;;;;;5038475;28;20460;-85
2021/10/15 05:21:28;;;;;;;8.17;7.37;;;7.70;59.30;;;;;;5038513;28;20504;-85
2021/10/15 05:23:54;;;;;;;8.47;7.73;;;7.80;60.10;;;;;;5038299;28;20185;-85
2021/10/15 05:26:19;;;;;;;8.73;7.43;;;7.80;59.70;;;;;;5037928;28;20660;-85
2021/10/15 05:28:45;;;;;;;8.00;7.33;;;7.70;59.90;;;;;;5038137;28;20283;-86
2021/10/15 05:31:11;;;;;;;9.30;8.43;;;7.60;60.50;;;;;;5038073;28;20237;-85
2021/10/15 05:33:36;;;;;;;9.47;8.20;;;7.60;61.40;;;;;;5038335;28;20275;-86
2021/10/15 05:36:02;;;;;;;9.20;8.33;;;7.40;61.10;;;;;;5038403;28;20758;-86
2021/10/15 05:38:28;;;;;;;9.23;8.30;;;7.30;62.00;;;;;;5037758;28;20208;-87
2021/10/15 05:40:53;;;;;;;10.53;8.47;;;7.30;62.10;;;;;;5037815;28;20242;-86
2021/10/15 05:43:19;;;;;;;9.63;8.83;;;7.20;62.70;;;;;;5037862;28;20276;-85
2021/10/15 05:45:45;;;;;;;9.40;8.50;;;7.10;62.70;;;;;;5037967;28;20183;-85
2021/10/15 05:48:11;;;;;;;8.83;8.13;;;7.10;62.40;;;;;;5037592;28;20409;-85
2021/10/15 05:50:37;;;;;;;9.13;8.27;;;7.00;62.70;;;;;;5037635;28;20564;-85
2021/10/15 05:53:07;;;;;;;9.27;8.37;;;7.00;62.80;;;;;;5037483;28;20618;-85
2021/10/15 06:01:01;;;;;;;9.00;8.20;;;7.10;63.20;;;;;;5055339;28;20457;-85
2021/10/15 06:03:27;;;;;;;9.50;8.63;;;7.20;62.90;;;;;;5037323;28;20810;-87
2021/10/15 06:14:21;;;;;;;8.67;7.13;;;7.10;62.50;;;;;;5055372;28;20429;-86
2021/10/15 06:16:55;;;;;;;9.50;7.70;;;7.10;61.90;;;;;;5036907;28;20418;-85
2021/10/15 06:19:24;;;;;;;9.48;8.60;;;7.10;63.90;;;;;;5036587;28;20416;-85
2021/10/15 06:21:50;;;;;;;9.90;8.43;;;7.00;61.60;;;;;;5037049;28;20179;-85
2021/10/15 06:24:16;;;;;;;8.30;7.60;;;6.90;61.80;;;;;;5054035;28;20411;-85
2021/10/15 06:26:45;;;;;;;9.40;8.50;;;6.80;61.80;;;;;;5036693;28;20414;-85
2021/10/15 06:29:11;;;;;;;8.43;7.40;;;6.90;61.70;;;;;;5036935;28;20442;-85
2021/10/15 06:31:37;;;;;;;8.10;7.40;;;6.90;62.20;;;;;;5036894;28;20425;-85
2021/10/15 06:34:02;;;;;;;8.77;7.87;;;7.00;63.10;;;;;;5036866;28;20417;-86
2021/10/15 06:36:28;;;;;;;9.03;8.23;;;7.00;61.90;;;;;;5036622;28;20188;-86
2021/10/15 06:38:54;;;;;;;9.60;8.33;;;7.00;62.50;;;;;;5036551;28;20183;-85
2021/10/15 06:41:20;;;;;;;8.67;7.87;;;7.10;62.80;;;;;;5036683;28;20294;-86
2021/10/15 06:43:46;;;;;;;8.70;8.00;;;7.10;62.30;;;;;;5036635;28;20263;-85
2021/10/15 06:46:12;;;;;;;10.00;8.37;;;7.20;62.20;;;;;;5055058;28;20870;-86
2021/10/15 06:48:39;;;;;;;10.73;9.73;;;7.30;62.40;;;;;;5036361;28;20266;-81
2021/10/15 06:51:04;;;;;;;9.50;8.70;;;7.30;62.20;;;;;;5036266;28;20472;-81
2021/10/15 06:53:30;;;;;;;9.17;8.20;;;7.30;62.00;;;;;;5036206;28;20422;-81
2021/10/15 06:55:55;;;;;;;9.63;8.63;;;7.40;61.70;;;;;;5036291;28;20180;-81
2021/10/15 06:58:21;;;;;;;9.13;8.23;;;7.40;61.30;;;;;;5036436;28;20184;-81
2021/10/15 07:00:47;;;;;;;10.63;8.23;;;7.40;61.40;;;;;;5036008;28;20248;-81
2021/10/15 07:03:18;;;;;;;9.17;8.00;;;7.40;61.00;;;;;;5035781;28;20301;-81
2021/10/15 07:05:44;;;;;;;10.37;8.40;;;7.50;60.40;;;;;;5035922;28;20628;-82
2021/10/15 07:08:11;;;;;;;10.83;9.83;;;7.60;61.00;;;;;;5035414;28;20454;-80
2021/10/15 07:10:37;;;;;;;11.67;8.50;;;7.60;60.60;;;;;;5035692;28;20418;-82
2021/10/15 07:13:03;;;;;;;13.47;9.03;;;7.70;60.60;;;;;;5053390;28;20441;-80
2021/10/15 07:15:30;;;;;;;11.40;8.10;;;7.80;60.10;;;;;;5035555;28;20427;-80
2021/10/15 07:17:56;;;;;;;10.70;9.50;;;7.70;59.10;;;;;;5035456;28;20472;-80
2021/10/15 07:20:27;;;;;;;11.50;9.40;;;7.80;60.00;;;;;;5035579;28;20849;-81
2021/10/15 07:22:55;;;;;;;8.97;8.10;;;7.90;60.10;;;;;;5035463;28;20639;-81
2021/10/15 07:25:24;;;;;;;10.33;8.60;;;7.90;59.30;;;;;;5035709;28;20777;-82
2021/10/15 07:27:50;;;;;;;16.20;9.50;;;7.90;58.80;;;;;;5035283;28;20473;-80
2021/10/15 07:30:15;;;;;;;11.83;8.63;;;7.90;59.40;;;;;;5035755;28;20477;-82
2021/10/15 07:32:41;;;;;;;11.57;8.53;;;7.90;59.40;;;;;;5035440;28;20414;-81
2021/10/15 07:35:08;;;;;;;12.60;8.23;;;8.00;58.90;;;;;;5035359;28;20262;-81
2021/10/15 07:37:34;;;;;;;9.53;8.60;;;8.00;59.40;;;;;;5035141;28;20180;-80
2021/10/15 07:39:59;;;;;;;10.10;9.13;;;8.10;58.70;;;;;;5035193;28;20531;-81
2021/10/15 07:42:25;;;;;;;11.00;8.73;;;8.20;58.10;;;;;;5035319;28;20418;-82
2021/10/15 07:44:51;;;;;;;12.33;8.03;;;8.20;58.20;;;;;;5035143;28;20588;-82
2021/10/15 07:47:17;;;;;;;11.03;8.90;;;8.30;58.80;;;;;;5034894;28;20493;-82
2021/10/15 07:49:42;;;;;;;10.20;8.77;;;8.40;59.40;;;;;;5035015;28;20211;-82
2021/10/15 07:52:08;;;;;;;9.43;8.57;;;8.40;57.80;;;;;;5034978;28;20550;-82
2021/10/15 07:54:34;;;;;;;15.47;10.13;;;8.50;58.70;;;;;;5035223;28;20176;-82
2021/10/15 07:57:01;;;;;;;9.40;8.50;;;8.60;58.20;;;;;;5034831;28;20168;-80
2021/10/15 07:59:27;;;;;;;10.77;9.03;;;8.60;57.20;;;;;;5035147;28;20422;-81
2021/10/15 08:01:53;;;;;;;8.30;7.60;;;8.70;57.10;;;;;;5035033;28;20754;-81
2021/10/15 08:04:20;;;;;;;13.60;9.90;;;8.70;57.00;;;;;;5034983;28;20536;-82
2021/10/15 08:06:46;;;;;;;15.47;8.27;;;8.80;58.20;;;;;;5034573;28;20734;-80
2021/10/15 08:09:12;;;;;;;9.20;8.37;;;8.90;57.40;;;;;;5034934;28;20411;-82
2021/10/15 08:11:38;;;;;;;11.10;9.00;;;9.00;58.00;;;;;;5034670;28;20418;-82
2021/10/15 08:14:04;;;;;;;8.87;8.00;;;9.00;56.50;;;;;;5034888;28;20461;-80
2021/10/15 08:16:30;;;;;;;11.07;8.37;;;9.10;56.90;;;;;;5034604;28;20447;-81
2021/10/15 08:18:56;;;;;;;12.83;7.90;;;9.10;56.40;;;;;;5034702;28;20422;-81
2021/10/15 08:21:22;;;;;;;10.27;8.60;;;9.20;56.80;;;;;;5034794;28;20454;-79
2021/10/15 08:23:48;;;;;;;9.40;8.60;;;9.20;56.30;;;;;;5034843;28;20513;-81
2021/10/15 08:26:15;;;;;;;9.27;8.47;;;9.30;56.80;;;;;;5034944;28;20172;-80
2021/10/15 08:28:41;;;;;;;9.53;8.70;;;9.30;55.20;;;;;;5034510;28;20418;-80
2021/10/15 08:31:07;;;;;;;9.60;8.70;;;9.40;55.70;;;;;;5034509;28;20418;-81
2021/10/15 08:33:33;;;;;;;9.17;8.23;;;9.40;55.10;;;;;;5034252;28;20433;-81
2021/10/15 08:35:58;;;;;;;9.33;8.33;;;9.50;55.60;;;;;;5034490;28;20938;-81
2021/10/15 08:38:24;;;;;;;10.27;8.90;;;9.60;56.10;;;;;;5034260;28;20183;-81
2021/10/15 08:40:50;;;;;;;12.53;8.57;;;9.60;55.80;;;;;;5034272;28;20255;-81
2021/10/15 08:43:15;;;;;;;11.93;8.20;;;9.70;55.20;;;;;;5034263;28;20589;-82
2021/10/15 08:45:41;;;;;;;8.90;8.00;;;9.80;53.80;;;;;;5033843;28;20655;-81
2021/10/15 08:48:08;;;;;;;8.93;8.13;;;9.80;54.20;;;;;;5033906;28;20176;-81
2021/10/15 08:50:35;;;;;;;8.83;8.03;;;9.90;54.10;;;;;;5034431;28;20423;-81
2021/10/15 08:53:03;;;;;;;9.53;8.57;;;9.90;54.30;;;;;;5034199;28;20419;-81
2021/10/15 08:55:29;;;;;;;7.80;7.10;;;10.00;53.30;;;;;;5034482;28;20505;-81
2021/10/15 08:57:57;;;;;;;8.90;8.10;;;10.00;54.20;;;;;;5033985;28;20428;-81
2021/10/15 09:00:32;;;;;;;9.73;8.53;;;10.00;52.70;;;;;;5034057;28;20451;-81
2021/10/15 09:03:15;;;;;;;11.30;8.50;;;10.00;53.30;;;;;;5034007;28;20424;-81
2021/10/15 09:05:50;;;;;;;10.00;8.57;;;10.10;53.20;;;;;;5034301;28;20423;-81
2021/10/15 09:08:16;;;;;;;10.07;9.03;;;10.20;52.70;;;;;;5033920;28;20410;-81
2021/10/15 09:10:41;;;;;;;9.60;8.80;;;10.30;52.00;;;;;;5034123;28;20418;-81
2021/10/15 09:13:22;;;;;;;9.27;8.37;;;10.30;51.30;;;;;;5034023;28;20215;-81
2021/10/15 09:15:58;;;;;;;7.90;6.67;;;10.40;52.30;;;;;;5034031;28;20180;-81
2021/10/15 09:18:30;;;;;;;9.83;8.07;;;10.40;51.70;;;;;;5033672;28;20914;-81
2021/10/15 09:20:56;;;;;;;8.70;8.00;;;10.50;51.80;;;;;;5034046;28;20537;-81
2021/10/15 09:23:49;;;;;;;8.20;7.40;;;10.50;51.80;;;;;;5033765;28;20410;-82
2021/10/15 09:26:17;;;;;;;8.13;7.43;;;10.70;51.20;;;;;;5034038;28;20410;-81
2021/10/15 09:28:45;;;;;;;8.90;8.20;;;10.70;51.70;;;;;;5034129;28;20484;-81
2021/10/15 09:31:13;;;;;;;11.33;8.30;;;10.80;51.80;;;;;;5034091;28;20779;-82
2021/10/15 09:33:56;;;;;;;8.07;6.70;;;10.90;49.70;;;;;;5033909;28;20424;-82
2021/10/15 09:36:22;;;;;;;8.97;6.63;;;10.90;49.30;;;;;;5034422;28;20419;-82
2021/10/15 09:38:50;;;;;;;8.97;7.97;;;10.90;49.60;;;;;;5033996;28;20461;-81
2021/10/15 09:41:38;;;;;;;12.33;7.33;;;11.00;49.50;;;;;;5034349;28;20819;-80
2021/10/15 09:44:31;;;;;;;7.10;6.40;;;11.00;49.80;;;;;;5034100;28;20449;-81
2021/10/15 09:47:13;;;;;;;7.20;6.60;;;11.10;49.70;;;;;;5033828;28;20407;-81
2021/10/15 09:49:57;;;;;;;7.67;6.97;;;11.30;50.40;;;;;;5034074;28;20906;-82
2021/10/15 09:52:23;;;;;;;7.60;7.00;;;11.40;49.40;;;;;;5034011;28;20464;-82
2021/10/15 09:55:12;;;;;;;7.50;6.70;;;11.50;49.80;;;;;;5033737;28;20410;-81
2021/10/15 09:57:39;;;;;;;6.73;6.07;;;11.60;49.30;;;;;;5033874;28;20812;-82
2021/10/15 10:00:09;;;;;;;9.93;6.80;;;11.80;48.80;;;;;;5053847;28;20984;-82
2021/10/15 10:02:35;;;;;;;8.43;6.23;;;12.00;49.10;;;;;;5037539;28;20410;-81
2021/10/15 10:05:03;;;;;;;6.40;5.80;;;12.10;48.80;;;;;;5037395;28;20434;-82
2021/10/15 10:07:29;;;;;;;6.27;5.77;;;12.30;47.70;;;;;;5036980;28;20464;-82
2021/10/15 10:09:54;;;;;;;6.77;4.80;;;12.30;47.40;;;;;;5037232;28;20825;-82
2021/10/15 10:12:20;;;;;;;8.93;5.23;;;12.50;46.50;;;;;;5037309;28;20187;-82
2021/10/15 10:14:47;;;;;;;14.80;10.50;;;12.60;46.20;;;;;;5037108;28;20537;-82
2021/10/15 10:17:19;;;;;;;7.83;6.50;;;12.60;46.30;;;;;;5037145;28;20215;-82
2021/10/15 10:19:45;;;;;;;8.10;7.30;;;12.60;46.40;;;;;;5037050;28;20453;-81
2021/10/15 10:22:11;;;;;;;6.93;6.10;;;12.60;46.30;;;;;;5054757;28;20744;-81
2021/10/15 10:24:45;;;;;;;9.43;7.37;;;12.50;46.20;;;;;;5036635;28;20451;-81
2021/10/15 10:27:11;;;;;;;5.73;5.13;;;12.50;45.40;;;;;;5036549;28;20576;-81
2021/10/15 10:29:52;;;;;;;8.63;6.23;;;12.50;46.00;;;;;;5036544;28;20429;-81
2021/10/15 10:32:18;;;;;;;7.53;6.83;;;12.50;46.10;;;;;;5036379;28;20172;-80
2021/10/15 10:34:44;;;;;;;7.20;5.97;;;12.50;45.80;;;;;;5036507;28;20930;-81
2021/10/15 10:37:12;;;;;;;10.10;5.60;;;12.50;46.60;;;;;;5036408;28;20415;-81
2021/10/15 10:39:38;;;;;;;5.93;5.37;;;12.60;46.40;;;;;;5054215;28;20230;-81
2021/10/15 10:42:04;;;;;;;7.30;6.00;;;12.60;46.40;;;;;;5036343;28;20422;-81
2021/10/15 10:44:31;;;;;;;6.67;5.90;;;12.70;46.20;;;;;;5036435;28;20752;-81
2021/10/15 10:47:06;;;;;;;7.40;6.70;;;12.70;45.70;;;;;;5036233;28;20547;-82
2021/10/15 10:49:31;;;;;;;7.13;6.37;;;12.70;46.90;;;;;;5036614;28;20517;-82
2021/10/15 10:52:11;;;;;;;6.07;5.50;;;12.80;46.30;;;;;;5036796;28;20441;-82
2021/10/15 10:54:39;;;;;;;6.40;5.80;;;12.80;46.40;;;;;;5036377;28;20721;-82
2021/10/15 10:57:40;;;;;;;6.80;6.20;;;12.80;45.70;;;;;;5036039;28;20415;-82
2021/10/15 11:00:20;;;;;;;7.10;6.40;;;12.90;45.40;;;;;;5004515;28;20454;-82
2021/10/15 11:02:54;;;;;;;6.87;6.17;;;13.00;45.40;;;;;;5036202;28;20914;-82
2021/10/15 11:05:34;;;;;;;7.60;6.67;;;13.10;45.00;;;;;;5053728;28;20406;-81
2021/10/15 11:08:23;;;;;;;7.30;5.77;;;13.10;45.20;;;;;;5035617;28;20402;-82
2021/10/15 11:10:52;;;;;;;8.07;7.27;;;13.10;45.60;;;;;;5045510;28;20425;-81
2021/10/15 11:13:33;;;;;;;5.87;5.13;;;13.10;45.10;;;;;;5035512;28;20529;-82
2021/10/15 11:15:58;;;;;;;8.57;6.13;;;13.20;45.20;;;;;;5035561;28;20426;-82
2021/10/15 11:18:25;;;;;;;7.93;4.97;;;13.20;46.10;;;;;;5035489;28;20838;-81
2021/10/15 11:20:51;;;;;;;4.47;4.07;;;13.30;44.50;;;;;;5035605;28;20239;-82
2021/10/15 11:23:17;;;;;;;4.00;3.60;;;13.40;43.30;;;;;;5035681;28;20414;-82
2021/10/15 11:25:48;;;;;;;5.50;3.27;;;13.40;42.90;;;;;;5035555;28;20419;-82
2021/10/15 11:28:19;;;;;;;4.60;3.37;;;13.50;42.60;;;;;;5053235;28;20275;-82
2021/10/15 11:30:48;;;;;;;3.50;3.30;;;13.40;42.50;;;;;;5035639;28;20475;-82
2021/10/15 11:33:16;;;;;;;3.53;3.33;;;13.50;42.30;;;;;;5035491;28;20414;-82
2021/10/15 11:35:44;;;;;;;3.83;3.43;;;13.60;42.00;;;;;;5035375;28;20464;-82
2021/10/15 11:38:19;;;;;;;3.80;3.50;;;13.60;42.00;;;;;;5034907;28;20472;-81
2021/10/15 11:40:56;;;;;;;5.70;4.07;;;13.60;41.50;;;;;;5035346;28;20469;-82
2021/10/15 11:43:25;;;;;;;4.03;3.73;;;13.60;42.20;;;;;;5035107;28;20419;-81
2021/10/15 11:46:10;;;;;;;7.40;3.37;;;13.70;42.30;;;;;;5035137;28;20444;-82
2021/10/15 11:48:39;;;;;;;4.90;4.00;;;13.60;41.60;;;;;;5034918;28;20855;-81
2021/10/15 11:51:10;;;;;;;4.40;3.70;;;13.60;41.20;;;;;;5035087;28;20442;-82
2021/10/15 11:53:43;;;;;;;3.57;3.27;;;13.70;42.10;;;;;;5034961;28;20426;-82
2021/10/15 11:56:12;;;;;;;5.43;3.70;;;13.70;42.50;;;;;;5034982;28;20922;-82
2021/10/15 11:58:43;;;;;;;3.90;3.60;;;13.80;42.80;;;;;;5034734;28;20457;-82
2021/10/15 12:01:29;;;;;;;4.47;4.07;;;13.90;42.40;;;;;;5035038;28;20458;-81
2021/10/15 12:04:13;;;;;;;6.60;3.97;;;14.00;41.60;;;;;;5034891;28;20450;-82
2021/10/15 12:06:45;;;;;;;5.27;4.20;;;14.00;42.20;;;;;;5034640;28;20502;-81
2021/10/15 12:09:10;;;;;;;5.17;4.00;;;14.00;42.50;;;;;;5034809;28;20850;-82
2021/10/15 12:11:42;;;;;;;7.73;3.87;;;14.00;42.50;;;;;;5034581;28;20442;-80
2021/10/15 12:14:32;;;;;;;5.10;4.60;;;13.90;41.90;;;;;;5052625;28;20619;-80
2021/10/15 12:17:09;;;;;;;5.65;4.88;;;13.90;42.00;;;;;;5026407;28;20419;-80
2021/10/15 12:19:48;;;;;;;4.10;3.80;;;14.00;42.00;;;;;;5035099;28;20180;-81
2021/10/15 12:22:25;;;;;;;4.13;3.73;;;14.10;41.40;;;;;;5034448;28;20430;-82
2021/10/15 12:25:04;;;;;;;4.30;4.00;;;14.10;40.70;;;;;;5035045;28;20418;-85
2021/10/15 12:27:37;;;;;;;3.70;3.43;;;14.20;41.30;;;;;;5034678;28;20429;-85
2021/10/15 12:30:19;;;;;;;4.40;4.03;;;14.20;41.70;;;;;;5034848;28;20418;-85
2021/10/15 12:32:44;;;;;;;3.90;3.60;;;14.30;40.90;;;;;;5034839;28;20407;-85
2021/10/15 12:35:13;;;;;;;8.03;4.00;;;14.20;41.60;;;;;;5034501;28;20476;-85
2021/10/15 12:37:59;;;;;;;4.43;4.03;;;14.30;42.00;;;;;;5034578;28;20172;-85
2021/10/15 12:40:34;;;;;;;5.13;4.63;;;14.30;41.60;;;;;;5034051;28;20457;-85
2021/10/15 12:43:03;;;;;;;5.13;4.63;;;14.20;41.30;;;;;;5034617;28;20419;-85
2021/10/15 12:45:33;;;;;;;7.23;4.13;;;14.20;41.10;;;;;;5034524;28;20494;-85
2021/10/15 12:48:06;;;;;;;4.40;4.00;;;14.20;41.30;;;;;;5034285;28;21201;-85
2021/10/15 12:50:55;;;;;;;5.60;4.67;;;14.20;41.70;;;;;;5052834;28;20407;-85
2021/10/15 12:53:21;;;;;;;5.00;4.27;;;14.20;41.90;;;;;;5027179;28;20796;-84
2021/10/15 12:55:54;;;;;;;4.30;4.00;;;14.20;41.50;;;;;;5034478;28;20411;-85
2021/10/15 12:58:20;;;;;;;4.40;4.00;;;14.30;41.20;;;;;;5034605;28;20180;-86
2021/10/15 13:00:47;;;;;;;4.20;3.90;;;14.20;41.50;;;;;;5052800;28;20480;-85
2021/10/15 13:03:13;;;;;;;4.13;3.83;;;14.30;41.20;;;;;;5053023;28;20430;-86
2021/10/15 13:05:39;;;;;;;4.17;3.60;;;14.30;41.40;;;;;;5035056;28;20410;-86
2021/10/15 13:08:05;;;;;;;3.93;3.57;;;14.20;42.00;;;;;;5034877;28;20423;-85
2021/10/15 13:10:31;;;;;;;5.03;4.13;;;14.20;42.00;;;;;;5034367;28;20426;-82
2021/10/15 13:12:57;;;;;;;5.40;4.27;;;14.30;41.70;;;;;;5034191;28;20196;-82